createdAt,value
2022-10-29T00:03:27.224Z,2.50
2022-10-29T00:08:30.813Z,2.20
2022-10-29T00:13:32.647Z,1.83
2022-10-29T00:18:34.548Z,2.13
2022-10-29T00:23:36.460Z,1.70
2022-10-29T00:28:38.614Z,2.28
2022-10-29T00:33:40.754Z,1.92
2022-10-29T00:38:43.484Z,1.67
2022-10-29T00:44:12.659Z,2.25
2022-10-29T00:49:16.806Z,2.42
2022-10-29T00:54:19.359Z,2.33
2022-10-29T00:59:21.325Z,1.85
2022-10-29T01:04:24.866Z,2.08
2022-10-29T01:09:26.658Z,1.98
2022-10-29T01:14:49.934Z,2.05
2022-10-29T01:20:25.646Z,3.13
2022-10-29T01:25:42.536Z,2.83
2022-10-29T01:31:00.287Z,2.30
2022-10-29T01:36:07.829Z,1.70
2022-10-29T01:41:41.616Z,2.33
2022-10-29T01:46:49.930Z,2.30
2022-10-29T01:51:54.179Z,2.63
2022-10-29T01:56:57.251Z,2.50
2022-10-29T02:02:16.142Z,2.25
2022-10-29T02:08:05.562Z,2.30
2022-10-29T02:13:11.394Z,2.35
2022-10-29T02:18:13.279Z,2.75
2022-10-29T02:23:16.691Z,2.42
2022-10-29T02:33:21.366Z,2.45
2022-10-29T02:38:23.139Z,1.75
2022-10-29T02:43:24.935Z,2.33
2022-10-29T02:48:26.721Z,2.17
2022-10-29T02:53:28.509Z,2.40
2022-10-29T02:58:30.372Z,2.55
2022-10-29T03:03:32.206Z,2.58
2022-10-29T03:08:33.980Z,2.30
2022-10-29T03:18:42.658Z,2.20
2022-10-29T03:23:44.510Z,2.38
2022-10-29T03:33:53.000Z,2.83
2022-10-29T03:38:54.816Z,2.50
2022-10-29T03:43:56.746Z,2.13
2022-10-29T03:48:58.613Z,2.30
2022-10-29T03:54:00.453Z,2.88
2022-10-29T03:59:02.352Z,2.65
2022-10-29T04:04:04.240Z,2.40
2022-10-29T04:09:06.079Z,3.10
2022-10-29T04:14:08.191Z,2.95
2022-10-29T04:19:10.051Z,3.05
2022-10-29T04:29:33.701Z,2.90
2022-10-29T04:34:35.481Z,3.17
2022-10-29T04:39:37.275Z,2.65
2022-10-29T04:44:39.123Z,3.28
2022-10-29T04:49:40.924Z,3.38
2022-10-29T04:54:42.716Z,2.55
2022-10-29T04:59:44.520Z,2.58
2022-10-29T05:04:46.310Z,2.83
2022-10-29T05:09:48.105Z,2.53
2022-10-29T05:14:49.938Z,4.13
2022-10-29T05:19:51.789Z,3.45
2022-10-29T05:24:53.573Z,3.28
2022-10-29T05:29:55.384Z,3.63
2022-10-29T05:34:57.391Z,3.60
2022-10-29T05:39:59.217Z,3.70
2022-10-29T05:45:01.004Z,3.08
2022-10-29T05:50:02.812Z,3.15
2022-10-29T05:55:05.617Z,2.95
2022-10-29T06:00:08.340Z,3.10
2022-10-29T06:05:13.869Z,5.25
2022-10-29T06:10:15.741Z,4.00
2022-10-29T06:15:18.632Z,4.35
2022-10-29T06:20:21.746Z,4.18
2022-10-29T06:25:24.223Z,4.15
2022-10-29T06:30:26.089Z,4.93
2022-10-29T06:35:28.969Z,6.63
2022-10-29T06:40:30.799Z,6.85
2022-10-29T06:45:33.575Z,7.68
2022-10-29T06:50:35.614Z,7.30
2022-10-29T06:55:37.444Z,7.65
2022-10-29T07:00:40.104Z,7.22
2022-10-29T07:05:42.051Z,7.53
2022-10-29T07:10:43.938Z,7.07
2022-10-29T07:15:45.805Z,7.68
2022-10-29T07:20:47.599Z,7.97
2022-10-29T07:25:52.487Z,8.57
2022-10-29T07:31:01.097Z,7.95
2022-10-29T07:36:03.001Z,7.07
2022-10-29T07:41:04.945Z,5.82
2022-10-29T07:46:07.299Z,6.47
2022-10-29T07:51:09.136Z,5.03
2022-10-29T07:56:11.008Z,5.05
2022-10-29T08:01:12.940Z,4.90
2022-10-29T08:06:14.784Z,5.10
2022-10-29T08:11:16.591Z,3.78
2022-10-29T08:16:18.515Z,4.28
2022-10-29T08:21:20.605Z,4.53
2022-10-29T08:26:22.332Z,5.50
2022-10-29T08:31:24.154Z,5.07
2022-10-29T08:36:25.937Z,4.90
2022-10-29T08:41:38.739Z,4.93
2022-10-29T08:46:54.077Z,4.50
2022-10-29T08:52:03.227Z,5.18
2022-10-29T08:57:15.118Z,4.80
2022-10-29T09:02:18.425Z,5.53
2022-10-29T09:07:36.359Z,5.63
2022-10-29T09:13:00.331Z,5.75
2022-10-29T09:18:31.564Z,5.07
2022-10-29T09:24:05.214Z,5.38
2022-10-29T09:29:49.018Z,5.40
2022-10-29T09:34:55.296Z,5.40
2022-10-29T09:39:58.533Z,5.50
2022-10-29T09:45:04.145Z,5.65
2022-10-29T09:50:19.708Z,5.90
2022-10-29T09:55:31.611Z,5.43
2022-10-29T10:00:34.547Z,7.28
2022-10-29T10:05:55.833Z,6.90
2022-10-29T10:11:01.385Z,7.78
2022-10-29T10:16:06.197Z,8.70
2022-10-29T10:21:09.981Z,10.00
2022-10-29T10:26:42.983Z,9.30
2022-10-29T10:31:47.023Z,9.20
2022-10-29T10:37:06.105Z,10.10
2022-10-29T10:42:22.860Z,9.43
2022-10-29T10:47:32.123Z,9.10
2022-10-29T10:52:35.253Z,11.40
2022-10-29T10:57:46.208Z,11.13
2022-10-29T11:02:52.041Z,9.57
2022-10-29T11:08:10.796Z,9.32
2022-10-29T11:13:22.923Z,7.72
2022-10-29T11:18:30.968Z,7.97
2022-10-29T11:23:39.815Z,8.82
2022-10-29T11:28:53.190Z,8.88
2022-10-29T11:34:14.168Z,9.23
2022-10-29T11:39:27.166Z,10.13
2022-10-29T11:44:34.578Z,8.55
2022-10-29T11:49:51.520Z,8.80
2022-10-29T11:55:08.523Z,9.63
2022-10-29T12:00:19.199Z,9.07
2022-10-29T12:05:42.868Z,9.05
2022-10-29T12:11:03.375Z,7.50
2022-10-29T12:16:28.531Z,8.50
2022-10-29T12:22:03.791Z,10.63
2022-10-29T12:27:29.580Z,10.43
2022-10-29T12:32:50.650Z,13.75
2022-10-29T12:38:13.321Z,12.35
2022-10-29T12:43:26.120Z,14.05
2022-10-29T12:48:39.574Z,15.70
2022-10-29T12:54:18.818Z,14.68
2022-10-29T12:59:24.194Z,12.35
2022-10-29T13:04:30.932Z,13.07
2022-10-29T13:09:36.787Z,14.55
2022-10-29T13:14:40.898Z,15.77
2022-10-29T13:19:55.319Z,16.13
2022-10-29T13:25:34.827Z,20.95
2022-10-29T13:30:39.758Z,22.27
2022-10-29T13:35:42.041Z,19.73
2022-10-29T13:41:17.340Z,19.05
2022-10-29T13:46:47.200Z,19.15
2022-10-29T13:51:54.261Z,17.30
2022-10-29T13:57:04.843Z,17.27
2022-10-29T14:02:32.270Z,15.55
2022-10-29T14:07:57.121Z,13.15
2022-10-29T14:13:17.968Z,13.18
2022-10-29T14:18:27.059Z,13.80
2022-10-29T14:23:30.734Z,13.15
2022-10-29T14:28:33.769Z,15.73
2022-10-29T14:33:37.590Z,14.90
2022-10-29T14:38:52.303Z,14.40
2022-10-29T14:44:02.452Z,13.70
2022-10-29T14:49:14.249Z,13.00
2022-10-29T14:54:21.790Z,14.27
2022-10-29T14:59:29.160Z,14.15
2022-10-29T15:04:32.522Z,15.40
2022-10-29T15:09:34.372Z,15.90
2022-10-29T15:14:54.520Z,14.32
2022-10-29T15:20:02.883Z,15.17
2022-10-29T15:25:08.819Z,14.65
2022-10-29T15:30:21.678Z,13.85
2022-10-29T15:35:24.242Z,14.50
2022-10-29T15:40:26.958Z,14.43
2022-10-29T15:45:28.836Z,14.98
2022-10-29T15:50:39.802Z,15.43
2022-10-29T15:55:41.903Z,15.85
2022-10-29T16:00:44.305Z,15.85
2022-10-29T16:05:49.499Z,14.15
2022-10-29T16:10:52.397Z,15.20
2022-10-29T16:15:54.489Z,15.50
2022-10-29T16:21:01.879Z,15.57
2022-10-29T16:26:04.111Z,14.65
2022-10-29T16:31:18.595Z,16.08
2022-10-29T16:36:20.729Z,15.00
2022-10-29T16:41:22.558Z,15.70
2022-10-29T16:46:24.363Z,15.80
2022-10-29T16:51:26.234Z,16.15
2022-10-29T16:56:28.090Z,16.38
2022-10-29T17:01:30.125Z,16.60
2022-10-29T17:06:32.108Z,17.55
2022-10-29T17:11:33.971Z,17.90
2022-10-29T17:21:42.744Z,18.17
2022-10-29T17:26:44.786Z,18.75
2022-10-29T17:31:46.873Z,19.02
2022-10-29T17:36:49.727Z,19.00
2022-10-29T17:41:52.117Z,25.25
2022-10-29T17:46:54.896Z,27.88
2022-10-29T17:51:56.724Z,21.35
2022-10-29T17:56:58.898Z,21.40
2022-10-29T18:02:01.136Z,21.85
2022-10-29T18:07:03.755Z,20.15
2022-10-29T18:12:05.844Z,19.70
2022-10-29T18:17:07.990Z,22.65
2022-10-29T18:22:09.930Z,23.05
2022-10-29T18:27:11.728Z,28.40
2022-10-29T18:32:13.693Z,34.15
2022-10-29T18:37:15.792Z,27.80
2022-10-29T18:42:17.989Z,24.55
2022-10-29T18:47:20.417Z,25.88
2022-10-29T18:52:22.737Z,32.08
2022-10-29T18:57:24.813Z,35.63
2022-10-29T19:02:27.013Z,27.05
2022-10-29T19:07:29.234Z,18.92
2022-10-29T19:12:32.291Z,17.05
2022-10-29T19:17:34.813Z,16.15
2022-10-29T19:22:37.063Z,14.45
2022-10-29T19:27:39.028Z,11.90
2022-10-29T19:32:41.340Z,9.57
2022-10-29T19:37:44.047Z,7.43
2022-10-29T19:42:48.858Z,6.00
2022-10-29T19:47:51.913Z,5.50
2022-10-29T19:52:54.412Z,4.97
2022-10-29T19:57:57.148Z,4.68
2022-10-29T20:02:59.645Z,5.43
2022-10-29T20:08:02.029Z,4.30
2022-10-29T20:13:04.677Z,4.30
2022-10-29T20:18:06.484Z,3.58
2022-10-29T20:23:08.415Z,4.57
2022-10-29T20:28:11.316Z,4.35
2022-10-29T20:33:13.643Z,2.97
2022-10-29T20:38:15.432Z,3.42
2022-10-29T20:43:17.391Z,3.50
2022-10-29T20:48:19.296Z,3.70
2022-10-29T20:53:21.112Z,3.58
2022-10-29T20:58:23.053Z,3.53
2022-10-29T21:03:24.849Z,4.05
2022-10-29T21:13:36.227Z,4.10
2022-10-29T21:18:42.102Z,3.75
2022-10-29T21:23:44.304Z,3.65
2022-10-29T21:28:47.046Z,4.30
2022-10-29T21:33:53.293Z,3.03
2022-10-29T21:38:55.163Z,2.92
2022-10-29T21:43:57.032Z,2.95
2022-10-29T21:48:58.875Z,2.85
2022-10-29T21:54:00.739Z,3.00
2022-10-29T21:59:02.583Z,2.95
2022-10-29T22:04:04.521Z,3.20
2022-10-29T22:09:06.365Z,3.40
2022-10-29T22:14:08.202Z,3.03
2022-10-29T22:19:10.082Z,3.10
2022-10-29T22:24:12.037Z,3.10
2022-10-29T22:29:13.837Z,3.38
2022-10-29T22:34:15.721Z,3.75
2022-10-29T22:39:17.833Z,3.20
2022-10-29T22:44:19.991Z,3.42
2022-10-29T22:49:21.787Z,4.57
2022-10-29T22:54:23.568Z,4.40
2022-10-29T22:59:25.365Z,4.63
2022-10-29T23:04:27.254Z,3.78
2022-10-29T23:09:29.082Z,4.55
2022-10-29T23:14:30.884Z,3.45
2022-10-29T23:19:32.878Z,3.08
2022-10-29T23:24:34.661Z,2.88
2022-10-29T23:29:36.442Z,2.65
2022-10-29T23:34:38.219Z,3.22
2022-10-29T23:39:40.000Z,2.40
2022-10-29T23:44:41.821Z,3.05
2022-10-29T23:49:43.600Z,2.95
2022-10-29T23:54:45.398Z,3.17
2022-10-29T23:59:47.214Z,3.15
